createdAt,value
2023-03-07T00:01:06.494Z,48.70
2023-03-07T00:03:33.378Z,48.80
2023-03-07T00:06:05.198Z,48.80
2023-03-07T00:08:32.389Z,48.70
2023-03-07T00:11:03.838Z,48.80
2023-03-07T00:13:31.668Z,48.90
2023-03-07T00:16:10.920Z,48.90
2023-03-07T00:18:37.871Z,48.90
2023-03-07T00:21:06.930Z,48.90
2023-03-07T00:23:34.899Z,48.90
2023-03-07T00:26:07.616Z,49.00
2023-03-07T00:28:34.539Z,49.10
2023-03-07T00:31:03.676Z,49.00
2023-03-07T00:33:30.438Z,49.10
2023-03-07T00:36:11.403Z,49.00
2023-03-07T00:38:38.413Z,49.10
2023-03-07T00:41:07.597Z,49.00
2023-03-07T00:43:35.363Z,49.10
2023-03-07T00:46:02.203Z,49.00
2023-03-07T00:48:29.501Z,49.00
2023-03-07T00:50:56.837Z,49.10
2023-03-07T00:53:24.936Z,49.00
2023-03-07T00:55:59.940Z,49.00
2023-03-07T00:58:31.713Z,49.10
2023-03-07T01:00:58.764Z,49.10
2023-03-07T01:03:26.368Z,49.00
2023-03-07T01:05:54.713Z,49.00
2023-03-07T01:08:22.089Z,49.00
2023-03-07T01:10:48.844Z,49.10
2023-03-07T01:13:17.646Z,49.00
2023-03-07T01:15:44.622Z,49.20
2023-03-07T01:18:11.399Z,49.10
2023-03-07T01:20:39.285Z,49.20
2023-03-07T01:23:06.536Z,49.20
2023-03-07T01:25:40.648Z,49.20
2023-03-07T01:28:08.266Z,49.20
2023-03-07T01:30:35.181Z,49.20
2023-03-07T01:33:03.832Z,49.20
2023-03-07T01:35:36.303Z,49.40
2023-03-07T01:38:02.869Z,49.30
2023-03-07T01:40:29.486Z,49.30
2023-03-07T01:43:34.442Z,49.40
2023-03-07T01:46:19.360Z,49.50
2023-03-07T01:48:50.687Z,49.40
2023-03-07T01:51:18.988Z,49.40
2023-03-07T01:53:46.681Z,49.30
2023-03-07T01:56:13.384Z,49.30
2023-03-07T01:58:40.281Z,49.30
2023-03-07T02:01:10.023Z,49.50
2023-03-07T02:04:01.952Z,49.40
2023-03-07T02:06:31.825Z,49.30
2023-03-07T02:09:00.293Z,49.40
2023-03-07T02:11:27.035Z,49.50
2023-03-07T02:13:53.729Z,49.50
2023-03-07T02:16:20.730Z,49.50
2023-03-07T02:18:49.886Z,49.40
2023-03-07T02:21:34.661Z,49.50
2023-03-07T02:24:31.434Z,49.40
2023-03-07T02:26:58.994Z,49.50
2023-03-07T02:29:25.614Z,49.50
2023-03-07T02:31:52.236Z,49.50
2023-03-07T02:34:21.925Z,49.50
2023-03-07T02:36:52.973Z,49.50
2023-03-07T02:39:22.676Z,49.50
2023-03-07T02:41:51.064Z,49.50
2023-03-07T02:44:17.654Z,49.50
2023-03-07T02:46:44.380Z,49.50
2023-03-07T02:49:10.982Z,49.50
2023-03-07T02:51:37.616Z,49.50
2023-03-07T02:54:04.443Z,49.50
2023-03-07T02:56:31.135Z,49.50
2023-03-07T02:58:57.730Z,49.50
2023-03-07T03:01:24.355Z,49.40
2023-03-07T03:03:51.298Z,49.40
2023-03-07T03:06:18.053Z,49.40
2023-03-07T03:08:44.694Z,49.40
2023-03-07T03:11:11.283Z,49.40
2023-03-07T03:13:39.075Z,49.40
2023-03-07T03:16:06.057Z,49.30
2023-03-07T03:18:32.951Z,49.40
2023-03-07T03:20:59.675Z,49.30
2023-03-07T03:23:29.081Z,49.50
2023-03-07T03:26:00.918Z,49.40
2023-03-07T03:28:27.591Z,49.40
2023-03-07T03:31:01.595Z,49.50
2023-03-07T03:33:31.892Z,49.50
2023-03-07T03:35:59.778Z,49.50
2023-03-07T03:38:27.019Z,49.40
2023-03-07T03:40:53.567Z,49.40
2023-03-07T03:43:20.187Z,49.50
2023-03-07T03:45:55.039Z,49.40
2023-03-07T03:48:21.880Z,49.40
2023-03-07T03:50:48.617Z,49.40
2023-03-07T03:53:15.226Z,49.40
2023-03-07T03:55:41.910Z,49.50
2023-03-07T03:58:08.465Z,49.40
2023-03-07T04:00:35.060Z,49.40
2023-03-07T04:03:01.761Z,49.40
2023-03-07T04:05:28.502Z,49.30
2023-03-07T04:07:55.126Z,49.40
2023-03-07T04:10:21.736Z,49.30
2023-03-07T04:12:48.308Z,49.40
2023-03-07T04:15:14.927Z,49.40
2023-03-07T04:17:41.843Z,49.30
2023-03-07T04:20:14.341Z,49.40
2023-03-07T04:22:40.957Z,49.30
2023-03-07T04:25:07.772Z,49.30
2023-03-07T04:27:35.238Z,49.40
2023-03-07T04:30:01.971Z,49.30
2023-03-07T04:32:28.571Z,49.40
2023-03-07T04:34:55.141Z,49.40
2023-03-07T04:37:21.691Z,49.30
2023-03-07T04:39:48.296Z,49.30
2023-03-07T04:42:14.872Z,49.30
2023-03-07T04:44:41.489Z,49.40
2023-03-07T04:47:08.031Z,49.30
2023-03-07T04:49:34.720Z,49.30
2023-03-07T04:52:01.268Z,49.30
2023-03-07T04:54:29.312Z,49.30
2023-03-07T04:56:55.890Z,49.30
2023-03-07T04:59:22.431Z,49.90
2023-03-07T05:01:48.998Z,49.30
2023-03-07T05:04:15.657Z,49.30
2023-03-07T05:06:42.265Z,49.30
2023-03-07T05:09:08.860Z,49.30
2023-03-07T05:11:35.420Z,49.30
2023-03-07T05:14:01.977Z,49.30
2023-03-07T05:16:28.570Z,49.30
2023-03-07T05:18:55.234Z,49.30
2023-03-07T05:21:21.800Z,49.30
2023-03-07T05:23:48.355Z,49.30
2023-03-07T05:26:14.990Z,49.30
2023-03-07T05:28:41.590Z,49.30
2023-03-07T05:31:08.287Z,49.30
2023-03-07T05:33:34.883Z,49.20
2023-03-07T05:36:02.940Z,49.30
2023-03-07T05:38:29.616Z,49.20
2023-03-07T05:40:56.254Z,49.30
2023-03-07T05:43:22.837Z,49.20
2023-03-07T05:45:49.501Z,49.30
2023-03-07T05:48:16.123Z,49.20
2023-03-07T05:50:42.673Z,49.20
2023-03-07T05:53:09.537Z,49.30
2023-03-07T05:55:36.155Z,49.30
2023-03-07T05:58:02.762Z,49.20
2023-03-07T06:00:29.405Z,49.20
2023-03-07T06:02:56.128Z,49.20
2023-03-07T06:05:24.930Z,49.50
2023-03-07T06:07:51.972Z,49.60
2023-03-07T06:10:18.711Z,49.60
2023-03-07T06:12:50.072Z,49.70
2023-03-07T06:15:17.143Z,49.80
2023-03-07T06:17:43.764Z,49.70
2023-03-07T06:20:11.264Z,49.30
2023-03-07T06:22:38.240Z,49.50
2023-03-07T06:25:09.004Z,49.80
2023-03-07T06:27:36.820Z,49.70
2023-03-07T06:30:05.923Z,49.70
2023-03-07T06:32:32.754Z,49.30
2023-03-07T06:34:59.454Z,49.10
2023-03-07T06:37:26.057Z,49.60
2023-03-07T06:39:54.046Z,50.60
2023-03-07T06:42:20.616Z,50.80
2023-03-07T06:44:47.195Z,51.50
2023-03-07T06:47:13.905Z,52.10
2023-03-07T06:49:40.504Z,52.30
2023-03-07T06:52:07.336Z,52.40
2023-03-07T06:54:33.929Z,52.30
2023-03-07T06:57:00.472Z,53.10
2023-03-07T06:59:27.137Z,52.50
2023-03-07T07:01:53.843Z,52.60
2023-03-07T07:04:20.510Z,52.50
2023-03-07T07:06:47.102Z,52.70
2023-03-07T07:09:16.666Z,52.90
2023-03-07T07:11:43.242Z,53.00
2023-03-07T07:14:09.845Z,52.90
2023-03-07T07:16:36.664Z,52.80
2023-03-07T07:19:03.775Z,52.90
2023-03-07T07:21:30.414Z,53.50
2023-03-07T07:23:58.032Z,52.80
2023-03-07T07:26:26.304Z,52.70
2023-03-07T07:28:53.541Z,52.70
2023-03-07T07:31:20.242Z,52.80
2023-03-07T07:33:46.894Z,52.80
2023-03-07T07:36:13.579Z,52.60
2023-03-07T07:38:40.199Z,52.90
2023-03-07T07:41:06.800Z,52.70
2023-03-07T07:43:33.369Z,52.40
2023-03-07T07:46:02.343Z,52.50
2023-03-07T07:48:28.986Z,52.50
2023-03-07T07:50:55.532Z,52.40
2023-03-07T07:53:22.115Z,52.40
2023-03-07T07:55:48.957Z,52.30
2023-03-07T07:58:15.563Z,52.20
2023-03-07T08:00:42.244Z,52.40
2023-03-07T08:03:08.862Z,52.40
2023-03-07T08:05:35.517Z,52.20
2023-03-07T08:08:02.212Z,52.20
2023-03-07T08:10:28.818Z,52.10
2023-03-07T08:12:55.574Z,52.10
2023-03-07T08:15:22.358Z,52.10
2023-03-07T08:17:50.335Z,52.10
2023-03-07T08:20:17.494Z,51.90
2023-03-07T08:22:44.106Z,52.00
2023-03-07T08:25:17.874Z,51.90
2023-03-07T08:27:44.688Z,51.90
2023-03-07T08:30:12.248Z,51.80
2023-03-07T08:32:38.827Z,51.80
2023-03-07T08:35:05.958Z,51.80
2023-03-07T08:37:32.546Z,51.80
2023-03-07T08:39:59.138Z,51.80
2023-03-07T08:42:25.783Z,51.70
2023-03-07T08:44:52.360Z,51.50
2023-03-07T08:47:18.933Z,51.60
2023-03-07T08:49:45.613Z,51.50
2023-03-07T08:52:12.203Z,51.50
2023-03-07T08:54:38.854Z,51.50
2023-03-07T08:57:05.477Z,51.40
2023-03-07T08:59:32.070Z,51.30
2023-03-07T09:01:58.726Z,51.10
2023-03-07T09:04:25.432Z,51.20
2023-03-07T09:06:52.163Z,51.20
2023-03-07T09:09:18.824Z,51.10
2023-03-07T09:11:45.500Z,51.00
2023-03-07T09:14:12.146Z,50.90
2023-03-07T09:16:38.822Z,50.90
2023-03-07T09:19:05.719Z,50.80
2023-03-07T09:21:32.601Z,50.80
2023-03-07T09:23:59.258Z,50.70
2023-03-07T09:26:25.936Z,50.50
2023-03-07T09:28:52.713Z,50.50
2023-03-07T09:31:19.374Z,50.40
2023-03-07T09:33:47.047Z,50.40
2023-03-07T09:36:15.265Z,50.40
2023-03-07T09:38:42.179Z,50.30
2023-03-07T09:41:41.047Z,50.20
2023-03-07T09:44:10.592Z,50.10
2023-03-07T09:46:55.846Z,50.20
2023-03-07T09:49:53.257Z,50.10
2023-03-07T09:52:24.304Z,50.00
2023-03-07T09:55:09.744Z,49.90
2023-03-07T09:57:50.414Z,49.60
2023-03-07T10:00:29.643Z,49.70
2023-03-07T10:03:37.434Z,49.80
2023-03-07T10:06:23.092Z,49.60
2023-03-07T10:08:49.842Z,49.50
2023-03-07T10:11:23.262Z,49.50
2023-03-07T10:14:10.890Z,49.50
2023-03-07T10:16:57.194Z,49.50
2023-03-07T10:19:46.564Z,49.60
2023-03-07T10:22:37.637Z,49.40
2023-03-07T10:25:11.890Z,49.30
2023-03-07T10:27:38.929Z,49.40
2023-03-07T10:30:20.703Z,49.20
2023-03-07T10:32:51.870Z,49.30
2023-03-07T10:35:24.379Z,49.30
2023-03-07T10:37:59.821Z,50.00
2023-03-07T10:40:48.713Z,49.30
2023-03-07T10:43:35.597Z,49.10
2023-03-07T10:46:27.743Z,49.10
2023-03-07T10:49:14.521Z,49.10
2023-03-07T10:52:18.675Z,49.20
2023-03-07T10:54:45.295Z,49.10
2023-03-07T10:57:17.150Z,48.90
2023-03-07T10:59:48.213Z,49.00
2023-03-07T11:02:36.611Z,49.10
2023-03-07T11:05:24.106Z,48.90
2023-03-07T11:07:50.696Z,48.70
2023-03-07T11:10:39.548Z,48.70
2023-03-07T11:13:16.036Z,49.40
2023-03-07T11:15:44.706Z,48.80
2023-03-07T11:18:26.368Z,48.80
2023-03-07T11:20:53.051Z,48.70
2023-03-07T11:23:26.178Z,48.70
2023-03-07T11:25:54.896Z,48.70
2023-03-07T11:28:33.243Z,48.70
2023-03-07T11:31:22.806Z,48.60
2023-03-07T11:34:15.682Z,48.50
2023-03-07T11:36:47.834Z,48.50
2023-03-07T11:39:14.332Z,48.40
2023-03-07T11:41:45.960Z,48.40
2023-03-07T11:44:18.506Z,48.40
2023-03-07T11:46:57.310Z,48.50
2023-03-07T11:49:46.407Z,48.40
2023-03-07T11:52:30.560Z,48.30
2023-03-07T11:55:29.200Z,48.30
2023-03-07T11:58:00.305Z,48.30
2023-03-07T12:00:52.122Z,48.30
2023-03-07T12:03:39.702Z,48.20
2023-03-07T12:06:24.879Z,48.20
2023-03-07T12:09:17.497Z,48.20
2023-03-07T12:11:53.100Z,48.10
2023-03-07T12:14:40.656Z,48.10
2023-03-07T12:17:16.640Z,48.10
2023-03-07T12:20:07.327Z,48.00
2023-03-07T12:22:52.570Z,48.10
2023-03-07T12:25:29.176Z,48.10
2023-03-07T12:28:11.379Z,48.10
2023-03-07T12:30:59.592Z,48.00
2023-03-07T12:34:02.680Z,48.00
2023-03-07T12:36:35.685Z,48.00
2023-03-07T12:39:20.794Z,48.10
2023-03-07T12:42:32.145Z,47.90
2023-03-07T12:45:07.632Z,47.90
2023-03-07T12:47:41.883Z,47.90
2023-03-07T12:50:31.636Z,47.90
2023-03-07T12:53:01.271Z,47.70
2023-03-07T12:55:48.944Z,47.80
2023-03-07T12:58:35.052Z,47.70
2023-03-07T13:01:04.909Z,47.70
2023-03-07T13:04:03.819Z,47.70
2023-03-07T13:06:31.413Z,47.80
2023-03-07T13:09:01.314Z,47.70
2023-03-07T13:11:34.551Z,47.60
2023-03-07T13:14:03.112Z,47.60
2023-03-07T13:16:35.697Z,47.50
2023-03-07T13:19:36.486Z,47.40
2023-03-07T13:22:24.419Z,47.40
2023-03-07T13:24:51.065Z,47.50
2023-03-07T13:27:25.134Z,47.50
2023-03-07T13:30:14.855Z,47.40
2023-03-07T13:32:56.437Z,47.40
2023-03-07T13:35:32.031Z,47.30
2023-03-07T13:38:17.750Z,47.30
2023-03-07T13:40:44.354Z,47.20
2023-03-07T13:43:22.172Z,47.20
2023-03-07T13:45:56.286Z,47.30
2023-03-07T13:48:29.125Z,47.30
2023-03-07T13:50:55.637Z,47.20
2023-03-07T13:53:31.376Z,47.30
2023-03-07T13:56:04.506Z,47.20
2023-03-07T13:58:49.573Z,47.20
2023-03-07T14:01:22.401Z,47.20
2023-03-07T14:03:54.292Z,47.20
2023-03-07T14:06:26.705Z,47.20
2023-03-07T14:08:54.992Z,47.20
2023-03-07T14:11:32.861Z,47.20
2023-03-07T14:14:22.428Z,47.20
2023-03-07T14:17:20.174Z,47.20
2023-03-07T14:19:46.819Z,47.20
2023-03-07T14:22:19.175Z,47.10
2023-03-07T14:25:08.325Z,47.20
2023-03-07T14:27:58.715Z,47.10
2023-03-07T14:30:31.358Z,47.10
2023-03-07T14:32:59.470Z,47.10
2023-03-07T14:35:43.773Z,47.10
2023-03-07T14:38:22.791Z,47.00
2023-03-07T14:41:19.629Z,46.90
2023-03-07T14:44:04.772Z,46.90
2023-03-07T14:46:40.558Z,47.00
2023-03-07T14:49:26.081Z,46.90
2023-03-07T14:51:52.787Z,47.00
2023-03-07T14:54:22.501Z,46.90
2023-03-07T14:56:52.523Z,46.80
2023-03-07T14:59:28.350Z,46.90
2023-03-07T15:01:56.437Z,47.40
2023-03-07T15:04:29.441Z,46.80
2023-03-07T15:06:59.385Z,46.80
2023-03-07T15:09:26.975Z,46.80
2023-03-07T15:12:16.142Z,46.80
2023-03-07T15:14:54.171Z,46.80
2023-03-07T15:17:22.627Z,46.80
2023-03-07T15:20:07.381Z,46.80
2023-03-07T15:22:40.256Z,46.80
2023-03-07T15:25:23.864Z,46.80
2023-03-07T15:28:04.347Z,46.70
2023-03-07T15:30:34.019Z,46.60
2023-03-07T15:33:19.988Z,46.60
2023-03-07T15:36:05.925Z,46.60
2023-03-07T15:38:33.583Z,46.60
2023-03-07T15:41:00.493Z,47.20
2023-03-07T15:43:28.838Z,46.50
2023-03-07T15:46:01.585Z,44.30
2023-03-07T15:48:43.857Z,38.10
2023-03-07T15:51:15.636Z,37.30
2023-03-07T15:53:44.107Z,37.80
2023-03-07T15:56:36.082Z,39.80
2023-03-07T15:59:07.151Z,42.80
2023-03-07T16:01:33.847Z,43.20
2023-03-07T16:04:03.815Z,43.90
2023-03-07T16:06:44.884Z,44.30
2023-03-07T16:09:14.546Z,44.40
2023-03-07T16:11:42.495Z,44.30
2023-03-07T16:14:23.683Z,44.40
2023-03-07T16:16:50.649Z,45.10
2023-03-07T16:19:17.770Z,44.70
2023-03-07T16:21:44.480Z,44.70
2023-03-07T16:24:11.105Z,44.90
2023-03-07T16:26:39.197Z,45.10
2023-03-07T16:29:07.111Z,45.20
2023-03-07T16:31:33.833Z,45.30
2023-03-07T16:34:01.323Z,45.30
2023-03-07T16:36:27.978Z,45.40
2023-03-07T16:38:54.604Z,45.60
2023-03-07T16:41:22.525Z,45.60
2023-03-07T16:43:57.731Z,45.80
2023-03-07T16:46:25.372Z,45.80
2023-03-07T16:48:52.023Z,45.90
2023-03-07T16:51:21.397Z,45.90
2023-03-07T16:53:49.734Z,46.10
2023-03-07T16:56:28.341Z,46.10
2023-03-07T16:58:55.191Z,46.10
2023-03-07T17:01:21.912Z,46.20
2023-03-07T17:03:48.571Z,46.20
2023-03-07T17:06:16.538Z,46.20
2023-03-07T17:08:46.658Z,46.30
2023-03-07T17:11:25.095Z,46.40
2023-03-07T17:13:58.868Z,46.60
2023-03-07T17:16:27.035Z,46.60
2023-03-07T17:18:53.793Z,46.50
2023-03-07T17:21:22.177Z,46.50
2023-03-07T17:23:49.689Z,37.10
2023-03-07T17:26:22.271Z,42.10
2023-03-07T17:28:50.648Z,43.30
2023-03-07T17:31:17.261Z,44.70
2023-03-07T17:33:45.574Z,44.50
2023-03-07T17:36:12.558Z,44.40
2023-03-07T17:38:39.420Z,44.40
2023-03-07T17:41:06.118Z,43.30
2023-03-07T17:43:33.657Z,42.70
2023-03-07T17:46:00.681Z,42.60
2023-03-07T17:48:27.366Z,36.90
2023-03-07T17:50:53.978Z,38.00
2023-03-07T17:53:20.669Z,41.60
2023-03-07T17:55:47.281Z,43.20
2023-03-07T17:58:13.888Z,43.70
2023-03-07T18:00:40.574Z,43.80
2023-03-07T18:03:07.367Z,43.80
2023-03-07T18:05:34.003Z,44.00
2023-03-07T18:08:00.592Z,44.20
2023-03-07T18:10:27.220Z,44.30
2023-03-07T18:12:54.041Z,44.60
2023-03-07T18:15:21.957Z,44.70
2023-03-07T18:17:50.186Z,44.80
2023-03-07T18:20:19.432Z,45.10
2023-03-07T18:22:46.259Z,45.20
2023-03-07T18:25:14.569Z,45.20
2023-03-07T18:27:41.533Z,45.30
2023-03-07T18:30:09.200Z,45.40
2023-03-07T18:32:35.853Z,45.40
2023-03-07T18:35:02.516Z,45.60
2023-03-07T18:37:29.056Z,45.70
2023-03-07T18:39:55.816Z,45.80
2023-03-07T18:42:22.479Z,45.90
2023-03-07T18:44:49.105Z,45.90
2023-03-07T18:47:15.908Z,45.90
2023-03-07T18:49:42.660Z,46.10
2023-03-07T18:52:09.240Z,46.00
2023-03-07T18:54:35.869Z,46.00
2023-03-07T18:57:02.488Z,46.00
2023-03-07T18:59:29.152Z,46.10
2023-03-07T19:01:55.795Z,46.10
2023-03-07T19:04:22.525Z,46.10
2023-03-07T19:06:49.156Z,46.20
2023-03-07T19:09:17.877Z,46.20
2023-03-07T19:11:44.747Z,46.40
2023-03-07T19:14:11.573Z,46.00
2023-03-07T19:16:38.369Z,45.50
2023-03-07T19:19:05.111Z,45.60
2023-03-07T19:21:31.868Z,46.10
2023-03-07T19:24:01.432Z,46.10
2023-03-07T19:26:28.224Z,46.60
2023-03-07T19:28:56.190Z,46.90
2023-03-07T19:31:31.885Z,47.60
2023-03-07T19:33:58.912Z,48.60
2023-03-07T19:36:27.984Z,47.80
2023-03-07T19:38:56.362Z,48.90
2023-03-07T19:41:24.786Z,49.80
2023-03-07T19:43:51.801Z,50.30
2023-03-07T19:46:20.434Z,50.50
2023-03-07T19:48:47.671Z,50.80
2023-03-07T19:51:23.160Z,51.10
2023-03-07T19:53:50.319Z,51.50
2023-03-07T19:56:27.339Z,51.60
2023-03-07T19:58:54.944Z,51.90
2023-03-07T20:01:22.640Z,52.10
2023-03-07T20:03:50.743Z,47.60
2023-03-07T20:06:20.247Z,48.20
2023-03-07T20:08:51.445Z,49.70
2023-03-07T20:11:20.765Z,50.60
2023-03-07T20:13:48.677Z,51.00
2023-03-07T20:16:17.488Z,51.30
2023-03-07T20:18:48.310Z,51.70
2023-03-07T20:21:16.848Z,51.70
2023-03-07T20:23:45.572Z,52.30
2023-03-07T20:26:17.593Z,52.60
2023-03-07T20:28:44.501Z,52.60
2023-03-07T20:31:12.490Z,52.70
2023-03-07T20:33:40.945Z,52.80
2023-03-07T20:36:15.235Z,52.90
2023-03-07T20:38:42.027Z,53.10
2023-03-07T20:41:13.213Z,53.00
2023-03-07T20:43:40.111Z,53.30
2023-03-07T20:46:12.268Z,53.30
2023-03-07T20:48:40.365Z,53.60
2023-03-07T20:51:16.110Z,53.60
2023-03-07T20:53:42.737Z,53.80
2023-03-07T20:56:09.350Z,53.90
2023-03-07T20:58:36.100Z,54.10
2023-03-07T21:01:02.697Z,54.10
2023-03-07T21:03:29.633Z,54.20
2023-03-07T21:05:58.657Z,54.30
2023-03-07T21:08:26.035Z,54.30
2023-03-07T21:11:04.927Z,54.30
2023-03-07T21:13:34.795Z,54.40
2023-03-07T21:16:05.215Z,54.60
2023-03-07T21:18:32.616Z,54.60
2023-03-07T21:21:05.483Z,54.60
2023-03-07T21:23:32.045Z,54.70
2023-03-07T21:26:09.754Z,54.80
2023-03-07T21:28:36.719Z,54.90
2023-03-07T21:31:08.164Z,55.10
2023-03-07T21:33:35.562Z,55.00
2023-03-07T21:36:02.651Z,55.10
2023-03-07T21:38:29.666Z,55.30
2023-03-07T21:40:56.869Z,55.60
2023-03-07T21:43:23.936Z,55.20
2023-03-07T21:45:50.652Z,55.60
2023-03-07T21:48:19.164Z,55.70
2023-03-07T21:50:51.807Z,55.60
2023-03-07T21:53:19.042Z,55.60
2023-03-07T21:55:53.877Z,55.40
2023-03-07T21:58:21.915Z,55.50
2023-03-07T22:00:49.525Z,55.60
2023-03-07T22:03:16.260Z,55.40
2023-03-07T22:05:42.976Z,55.90
2023-03-07T22:08:10.035Z,55.50
2023-03-07T22:10:37.843Z,55.80
2023-03-07T22:13:06.747Z,56.10
2023-03-07T22:15:33.625Z,56.00
2023-03-07T22:18:00.327Z,56.00
2023-03-07T22:20:26.992Z,56.10
2023-03-07T22:22:53.927Z,56.00
2023-03-07T22:25:20.704Z,56.00
2023-03-07T22:27:47.289Z,56.00
2023-03-07T22:30:14.519Z,55.90
2023-03-07T22:32:44.252Z,55.90
2023-03-07T22:35:11.086Z,56.20
2023-03-07T22:37:37.731Z,56.00
2023-03-07T22:40:04.858Z,56.00
2023-03-07T22:42:31.459Z,56.00
2023-03-07T22:44:58.106Z,56.00
2023-03-07T22:47:24.716Z,56.00
2023-03-07T22:49:51.300Z,56.20
2023-03-07T22:52:18.053Z,56.00
2023-03-07T22:54:44.632Z,56.10
2023-03-07T22:57:11.258Z,56.00
2023-03-07T22:59:37.867Z,56.20
2023-03-07T23:02:04.497Z,56.10
2023-03-07T23:04:31.248Z,56.10
2023-03-07T23:06:57.895Z,56.10
2023-03-07T23:09:24.520Z,55.90
2023-03-07T23:11:51.155Z,56.00
2023-03-07T23:14:17.765Z,56.00
2023-03-07T23:16:44.357Z,56.00
2023-03-07T23:19:11.070Z,56.10
2023-03-07T23:21:37.656Z,56.00
2023-03-07T23:24:04.627Z,56.00
2023-03-07T23:26:34.292Z,56.10
2023-03-07T23:29:01.686Z,56.20
2023-03-07T23:31:30.781Z,56.00
2023-03-07T23:34:03.494Z,57.50
2023-03-07T23:36:31.431Z,75.60
2023-03-07T23:38:59.405Z,59.20
2023-03-07T23:41:26.727Z,56.20
2023-03-07T23:43:59.034Z,56.20
2023-03-07T23:46:26.926Z,69.60
2023-03-07T23:48:54.584Z,62.20
2023-03-07T23:51:22.846Z,56.20
2023-03-07T23:53:49.641Z,56.20
2023-03-07T23:56:16.854Z,56.20
2023-03-07T23:58:47.372Z,56.30
